Time;durP1;ratioP1;P1;durP2;ratioP2;P2;SDS_P1;SDS_P2;PMS_P1;PMS_P2;Temp;Humidity;BMP_temperature;BMP_pressure;BME280_temperature;BME280_humidity;BME280_pressure;Samples;Min_cycle;Max_cycle;Signal;HPM_P1;HPM_P2
2022/05/01 00:00:38;;;;;;;22.98;14.18;;;;;;;4.67;100.00;102751.81;7373525;19;20015;-68
2022/05/01 00:03:07;;;;;;;26.92;13.27;;;;;;;4.63;100.00;102747.22;7373042;19;20074;-68
2022/05/01 00:05:37;;;;;;;22.73;12.77;;;;;;;4.59;100.00;102740.91;7375182;19;20364;-68
2022/05/01 00:08:07;;;;;;;22.45;12.70;;;;;;;4.55;100.00;102738.91;7370603;19;20078;-68
2022/05/01 00:10:37;;;;;;;22.52;12.77;;;;;;;4.50;100.00;102737.69;7370688;19;20370;-67
2022/05/01 00:13:27;;;;;;;23.00;11.52;;;;;;;4.50;100.00;102747.19;7370700;19;20558;-68
2022/05/01 00:15:59;;;;;;;25.13;13.20;;;;;;;4.47;100.00;102740.06;7371444;19;20035;-68
2022/05/01 00:18:30;;;;;;;23.55;13.43;;;;;;;4.45;100.00;102730.38;7374739;19;20023;-68
2022/05/01 00:20:59;;;;;;;26.50;13.52;;;;;;;4.47;100.00;102731.38;7372732;19;20007;-68
2022/05/01 00:23:30;;;;;;;26.88;15.13;;;;;;;4.45;100.00;102730.38;7372874;19;20049;-68
2022/05/01 00:26:01;;;;;;;23.98;12.88;;;;;;;4.40;100.00;102732.66;7369692;19;20448;-70
2022/05/01 00:28:32;;;;;;;28.42;14.70;;;;;;;4.41;100.00;102733.56;7369262;19;20010;-68
2022/05/01 00:31:05;;;;;;;25.00;13.20;;;;;;;4.34;100.00;102736.53;7373325;19;20682;-68
2022/05/01 00:36:30;;;;;;;34.63;15.82;;;;;;;4.31;100.00;102729.44;7373900;19;20086;-70
2022/05/01 00:39:03;;;;;;;27.17;15.20;;;;;;;4.26;100.00;102723.94;7372528;19;20018;-68
2022/05/01 00:41:33;;;;;;;30.10;15.43;;;;;;;4.23;100.00;102728.00;7370542;19;20530;-70
2022/05/01 00:44:08;;;;;;;27.70;12.88;;;;;;;4.21;100.00;102727.91;7370708;19;20021;-69
2022/05/01 00:46:42;;;;;;;24.83;13.25;;;;;;;4.21;100.00;102717.50;7376925;19;20070;-68
2022/05/01 00:49:14;;;;;;;29.80;13.82;;;;;;;4.20;100.00;102720.91;7377416;19;20039;-68
2022/05/01 00:51:47;;;;;;;31.95;16.60;;;;;;;4.17;100.00;102712.91;7376394;19;20018;-77
2022/05/01 00:54:19;;;;;;;29.38;14.80;;;;;;;4.15;100.00;102714.53;7372133;19;20475;-77
2022/05/01 00:56:52;;;;;;;30.20;13.73;;;;;;;4.11;100.00;102711.63;7376914;19;20007;-76
2022/05/01 00:59:24;;;;;;;24.92;14.20;;;;;;;4.08;100.00;102712.31;7377449;19;20079;-76
2022/05/01 01:01:56;;;;;;;26.98;13.93;;;;;;;4.06;100.00;102711.28;7377589;19;20010;-76
2022/05/01 01:04:27;;;;;;;24.73;13.07;;;;;;;4.02;100.00;102714.47;7371077;19;20034;-76
2022/05/01 01:06:56;;;;;;;31.05;15.57;;;;;;;4.01;100.00;102710.06;7370168;19;20475;-76
2022/05/01 01:09:27;;;;;;;31.05;14.75;;;;;;;3.96;100.00;102708.84;7373130;19;20013;-77
2022/05/01 01:14:42;;;;;;;34.63;15.00;;;;;;;3.93;100.00;102701.75;7370959;19;20382;-76
2022/05/01 01:17:15;;;;;;;;;;;;;;;3.90;100.00;102709.34;7370868;19;20629;-76
2022/05/01 01:19:44;;;;;;;26.52;11.68;;;;;;;3.85;100.00;102707.22;7368752;19;19915;-76
2022/05/01 01:22:18;;;;;;;28.50;12.68;;;;;;;3.81;100.00;102705.19;7374793;19;20346;-78
2022/05/01 01:24:48;;;;;;;27.08;14.10;;;;;;;3.76;100.00;102701.38;7370863;19;20011;-76
2022/05/01 01:27:19;;;;;;;25.73;13.15;;;;;;;3.74;100.00;102706.44;7369455;19;20032;-77
2022/05/01 01:32:33;;;;;;;;;;;;;;;3.70;100.00;102707.03;7371542;19;20010;-76
2022/05/01 01:35:04;;;;;;;24.42;12.80;;;;;;;3.70;100.00;102700.94;7370008;19;20150;-77
2022/05/01 01:37:38;;;;;;;24.73;13.07;;;;;;;3.70;100.00;102695.75;7368661;19;20010;-77
2022/05/01 01:40:09;;;;;;;;;;;;;;;3.70;100.00;102708.72;7368089;19;20483;-77
2022/05/01 01:42:39;;;;;;;24.23;12.23;;;;;;;3.68;100.00;102703.44;7368753;19;19939;-77
2022/05/01 01:45:10;;;;;;;28.73;13.82;;;;;;;3.66;100.00;102701.50;7368354;19;20647;-77
2022/05/01 01:47:40;;;;;;;23.95;13.85;;;;;;;3.65;100.00;102702.31;7366760;19;20098;-77
2022/05/01 01:50:11;;;;;;;26.77;13.80;;;;;;;3.61;100.00;102701.19;7368300;19;20044;-69
2022/05/01 01:52:46;;;;;;;23.92;12.70;;;;;;;3.56;100.00;102698.28;7366036;19;20011;-70
2022/05/01 01:55:17;;;;;;;28.45;14.45;;;;;;;3.60;100.00;102700.28;7371488;19;20347;-68
2022/05/01 01:57:48;;;;;;;24.63;12.85;;;;;;;3.56;100.00;102706.06;7371970;19;20018;-69
2022/05/01 02:00:18;;;;;;;23.48;12.77;;;;;;;3.52;100.00;102706.63;7369592;19;20569;-68
2022/05/01 02:02:48;;;;;;;26.60;15.40;;;;;;;3.47;100.00;102708.00;7369110;19;20586;-69
2022/05/01 02:05:18;;;;;;;24.42;12.48;;;;;;;3.44;100.00;102706.88;7367738;19;20010;-69
2022/05/01 02:07:51;;;;;;;25.83;14.10;;;;;;;3.43;100.00;102699.88;7371152;19;20142;-70
2022/05/01 02:10:22;;;;;;;25.98;14.85;;;;;;;3.46;100.00;102694.91;7367175;19;20011;-71
2022/05/01 02:12:53;;;;;;;27.08;14.30;;;;;;;3.45;100.00;102704.38;7368345;19;20010;-69
2022/05/01 02:15:23;;;;;;;27.48;13.43;;;;;;;3.41;100.00;102697.19;7371553;19;20340;-69
2022/05/01 02:17:53;;;;;;;28.10;14.35;;;;;;;3.38;100.00;102698.66;7369579;19;20014;-68
2022/05/01 02:20:23;;;;;;;29.60;14.80;;;;;;;3.37;100.00;102689.97;7370262;19;20023;-69
2022/05/01 02:22:57;;;;;;;25.50;12.98;;;;;;;3.35;100.00;102696.72;7365984;19;20609;-69
2022/05/01 02:25:28;;;;;;;26.25;14.90;;;;;;;3.32;100.00;102686.13;7368386;19;20011;-69
2022/05/01 02:27:58;;;;;;;24.55;14.25;;;;;;;3.28;100.00;102684.13;7364145;19;20011;-69
2022/05/01 02:30:28;;;;;;;26.67;12.75;;;;;;;3.23;100.00;102691.56;7375930;19;20489;-69
2022/05/01 02:32:57;;;;;;;26.77;13.88;;;;;;;3.23;100.00;102682.88;7373812;19;20190;-69
2022/05/01 02:35:27;;;;;;;26.77;13.77;;;;;;;3.20;100.00;102683.56;7375905;19;20007;-69
2022/05/01 02:38:01;;;;;;;29.27;14.40;;;;;;;3.19;100.00;102683.47;7375616;19;20411;-69
2022/05/01 02:40:32;;;;;;;28.60;14.63;;;;;;;3.23;100.00;102680.28;7378463;19;20405;-69
2022/05/01 02:43:02;;;;;;;27.85;14.27;;;;;;;3.19;100.00;102675.69;7375270;19;20035;-68
2022/05/01 02:45:32;;;;;;;28.20;14.68;;;;;;;3.15;100.00;102671.97;7374122;19;20010;-68
2022/05/01 02:48:02;;;;;;;25.60;13.68;;;;;;;3.11;100.00;102680.34;7374309;19;20077;-68
2022/05/01 02:50:33;;;;;;;25.42;14.02;;;;;;;3.09;100.00;102676.75;7373720;19;20007;-68
2022/05/01 02:53:05;;;;;;;27.08;13.75;;;;;;;3.10;100.00;102669.88;7366441;19;20562;-68
2022/05/01 02:55:35;;;;;;;28.42;14.90;;;;;;;3.06;100.00;102667.84;7372829;19;20086;-68
2022/05/01 02:58:05;;;;;;;26.80;13.88;;;;;;;3.04;100.00;102672.00;7375629;19;20018;-68
2022/05/01 03:00:34;;;;;;;28.27;14.50;;;;;;;3.07;100.00;102665.34;7376325;19;20077;-68
2022/05/01 03:03:04;;;;;;;29.70;14.30;;;;;;;3.06;100.00;102670.44;7376520;19;20014;-68
2022/05/01 03:05:34;;;;;;;29.10;13.68;;;;;;;3.03;100.00;102668.50;7377436;19;20015;-68
2022/05/01 03:08:07;;;;;;;28.13;15.00;;;;;;;3.01;100.00;102669.19;7373743;19;20098;-69
2022/05/01 03:10:37;;;;;;;30.00;16.10;;;;;;;3.01;100.00;102651.94;7375858;19;20063;-69
2022/05/01 03:13:08;;;;;;;26.58;12.77;;;;;;;2.97;100.00;102664.56;7375795;19;20026;-69
2022/05/01 03:15:37;;;;;;;27.17;13.75;;;;;;;2.96;100.00;102663.69;7374876;19;20028;-69
2022/05/01 03:23:34;;;;;;;27.13;15.25;;;;;;;2.87;100.00;102657.81;7370812;19;20011;-69
2022/05/01 03:26:05;;;;;;;24.17;13.70;;;;;;;2.84;100.00;102660.19;7375930;19;20527;-70
2022/05/01 03:28:35;;;;;;;25.73;13.40;;;;;;;2.83;100.00;102658.38;7372416;19;20812;-70
2022/05/01 03:31:09;;;;;;;29.25;14.77;;;;;;;2.84;100.00;102663.69;7374560;19;20086;-70
2022/05/01 03:33:39;;;;;;;28.02;14.70;;;;;;;2.82;100.00;102654.88;7370299;19;20022;-70
2022/05/01 03:36:09;;;;;;;25.13;13.48;;;;;;;2.81;100.00;102660.88;7375361;19;20644;-68
2022/05/01 03:38:43;;;;;;;25.08;13.95;;;;;;;2.79;100.00;102657.25;7378242;19;20328;-68
2022/05/01 03:41:18;;;;;;;29.63;14.57;;;;;;;2.78;100.00;102663.22;7377040;19;20018;-69
2022/05/01 03:43:48;;;;;;;28.15;13.25;;;;;;;2.76;100.00;102654.44;7379519;19;20567;-68
2022/05/01 03:46:20;;;;;;;26.38;13.23;;;;;;;2.77;100.00;102655.34;7378579;19;20048;-68
2022/05/01 03:48:50;;;;;;;27.50;13.73;;;;;;;2.74;100.00;102655.13;7377631;19;20498;-68
2022/05/01 03:51:19;;;;;;;28.23;14.68;;;;;;;2.76;100.00;102649.25;7378010;19;20018;-68
2022/05/01 03:53:52;;;;;;;27.33;13.68;;;;;;;2.72;100.00;102652.41;7374240;19;20014;-69
2022/05/01 03:56:22;;;;;;;28.50;14.23;;;;;;;2.75;100.00;102647.47;7376732;19;20086;-69
2022/05/01 03:58:52;;;;;;;29.30;13.23;;;;;;;2.73;100.00;102653.31;7377704;19;20082;-68
2022/05/01 04:01:21;;;;;;;33.35;14.98;;;;;;;2.74;100.00;102648.25;7378395;19;20517;-68
2022/05/01 04:03:51;;;;;;;29.00;14.18;;;;;;;2.77;100.00;102645.88;7377870;19;20003;-69
2022/05/01 04:06:25;;;;;;;33.63;14.70;;;;;;;2.73;100.00;102649.03;7378608;19;20030;-69
2022/05/01 04:08:57;;;;;;;29.83;14.25;;;;;;;2.71;100.00;102650.63;7374638;19;20014;-68
2022/05/01 04:11:27;;;;;;;28.95;14.57;;;;;;;2.70;100.00;102648.81;7379261;19;20113;-68
2022/05/01 04:13:57;;;;;;;29.60;14.90;;;;;;;2.68;100.00;102649.47;7377001;19;20086;-69
2022/05/01 04:16:27;;;;;;;29.00;15.05;;;;;;;2.68;100.00;102660.75;7379288;19;20033;-69
2022/05/01 04:18:57;;;;;;;27.17;14.60;;;;;;;2.74;100.00;102648.25;7370958;19;20018;-69
2022/05/01 04:21:27;;;;;;;31.25;15.35;;;;;;;2.78;100.00;102646.78;7375583;19;20255;-69
2022/05/01 04:23:59;;;;;;;27.77;14.45;;;;;;;2.80;100.00;102648.69;7376269;19;20374;-68
2022/05/01 04:26:29;;;;;;;26.88;15.10;;;;;;;2.83;100.00;102648.03;7376769;19;20018;-69
2022/05/01 04:31:41;;;;;;;29.73;15.10;;;;;;;2.87;100.00;102648.34;7370530;19;20019;-77
2022/05/01 04:34:11;;;;;;;32.75;15.45;;;;;;;2.94;100.00;102648.00;7374603;19;20043;-77
2022/05/01 04:36:42;;;;;;;27.70;14.68;;;;;;;2.99;100.00;102656.13;7370831;19;20053;-77
2022/05/01 04:39:14;;;;;;;31.50;15.25;;;;;;;3.04;100.00;102653.88;7371810;19;20485;-77
2022/05/01 04:41:44;;;;;;;32.60;16.50;;;;;;;3.09;100.00;102649.91;7372198;19;20049;-70
2022/05/01 04:44:14;;;;;;;28.08;15.45;;;;;;;3.12;100.00;102655.31;7371304;19;20507;-70
2022/05/01 04:46:47;;;;;;;34.38;16.17;;;;;;;3.17;100.00;102649.63;7369627;19;20014;-69
2022/05/01 04:49:18;;;;;;;30.98;16.33;;;;;;;3.24;100.00;102651.88;7371091;19;21167;-68
2022/05/01 04:51:49;;;;;;;35.05;16.30;;;;;;;3.29;100.00;102653.09;7369913;19;20014;-68
2022/05/01 04:54:21;;;;;;;28.85;15.30;;;;;;;3.35;100.00;102660.44;7366422;19;20421;-69
2022/05/01 04:59:34;;;;;;;31.42;16.27;;;;;;;3.59;100.00;102659.56;7371206;19;20010;-77
2022/05/01 05:02:05;;;;;;;28.15;14.65;;;;;;;3.70;100.00;102669.78;7372895;19;20006;-77
2022/05/01 05:04:36;;;;;;;30.30;15.90;;;;;;;3.81;100.00;102664.56;7369692;19;20021;-76
2022/05/01 05:07:06;;;;;;;27.48;14.85;;;;;;;3.91;100.00;102656.63;7375644;19;20069;-76
2022/05/01 05:12:22;;;;;;;31.10;15.95;;;;;;;4.22;100.00;102666.47;7370335;19;20044;-77
2022/05/01 05:14:54;;;;;;;35.35;15.25;;;;;;;4.39;100.00;102657.22;7367820;19;20010;-77
2022/05/01 05:17:25;;;;;;;30.63;16.13;;;;;;;4.59;100.00;102670.75;7371536;19;20035;-77
2022/05/01 05:19:55;;;;;;;33.13;16.23;;;;;;;4.78;100.00;102670.25;7368906;19;20415;-77
2022/05/01 05:22:24;;;;;;;37.55;18.52;;;;;;;4.92;100.00;102669.47;7369253;19;20597;-76
2022/05/01 05:24:57;;;;;;;40.58;19.48;;;;;;;5.10;100.00;102668.84;7371949;19;20006;-76
2022/05/01 05:27:28;;;;;;;38.10;21.00;;;;;;;5.22;100.00;102672.22;7375243;19;20018;-77
2022/05/01 05:29:59;;;;;;;35.55;19.60;;;;;;;5.37;100.00;102665.38;7367915;19;20469;-76
2022/05/01 05:32:29;;;;;;;40.33;20.38;;;;;;;5.54;100.00;102671.66;7369430;19;20464;-76
2022/05/01 05:34:58;;;;;;;42.40;21.95;;;;;;;5.73;100.00;102673.69;7369572;19;20389;-68
2022/05/01 05:37:28;;;;;;;40.85;21.65;;;;;;;5.85;100.00;102674.47;7370925;19;20052;-68
2022/05/01 05:40:00;;;;;;;35.38;17.75;;;;;;;6.08;100.00;102676.78;7368880;19;20044;-69
2022/05/01 05:42:30;;;;;;;42.55;20.55;;;;;;;6.23;100.00;102680.31;7370523;19;20484;-68
2022/05/01 05:45:01;;;;;;;43.58;20.38;;;;;;;6.40;100.00;102680.41;7368178;19;20943;-69
2022/05/01 05:47:31;;;;;;;44.72;20.73;;;;;;;6.55;100.00;102689.13;7369534;19;20019;-69
2022/05/01 05:50:01;;;;;;;43.38;21.85;;;;;;;6.70;100.00;102684.81;7368310;19;20003;-69
2022/05/01 05:52:30;;;;;;;40.15;20.70;;;;;;;6.85;100.00;102693.53;7367507;19;20010;-69
2022/05/01 05:55:03;;;;;;;39.95;21.55;;;;;;;7.03;100.00;102687.56;7367409;19;20441;-69
2022/05/01 05:57:33;;;;;;;46.17;22.92;;;;;;;7.07;100.00;102695.66;7373908;19;20006;-69
2022/05/01 06:00:03;;;;;;;44.92;21.48;;;;;;;7.19;100.00;102696.34;7369266;19;20471;-69
2022/05/01 06:02:37;;;;;;;39.78;20.83;;;;;;;7.37;100.00;102696.44;7373609;19;20007;-69
2022/05/01 06:05:08;;;;;;;39.20;20.15;;;;;;;7.67;100.00;102697.25;7381306;19;20019;-69
2022/05/01 06:07:38;;;;;;;42.35;22.20;;;;;;;7.93;100.00;102687.31;7382673;19;20015;-69
2022/05/01 06:10:12;;;;;;;36.05;20.92;;;;;;;8.33;100.00;102687.69;7379468;19;20015;-69
2022/05/01 06:12:45;;;;;;;43.38;21.92;;;;;;;8.65;98.57;102694.56;7381144;19;20007;-69
2022/05/01 06:15:22;;;;;;;39.08;21.10;;;;;;;8.89;97.25;102687.03;7381528;19;20010;-69
2022/05/01 06:17:52;;;;;;;42.42;19.23;;;;;;;8.91;96.78;102690.63;7381221;19;20489;-70
2022/05/01 06:20:22;;;;;;;38.75;20.50;;;;;;;9.03;95.86;102691.22;7381887;19;20048;-69
2022/05/01 06:22:52;;;;;;;35.78;18.77;;;;;;;8.97;95.04;102685.69;7382588;19;20019;-78
2022/05/01 06:25:25;;;;;;;35.80;19.40;;;;;;;9.07;95.38;102693.19;7381902;19;20114;-77
2022/05/01 06:27:55;;;;;;;40.70;20.02;;;;;;;9.25;95.62;102694.06;7380940;19;20418;-78
2022/05/01 06:30:25;;;;;;;35.92;18.08;;;;;;;9.27;94.46;102695.03;7380411;19;20015;-77
2022/05/01 06:32:55;;;;;;;35.08;19.13;;;;;;;9.35;93.99;102687.56;7381857;19;20040;-77
2022/05/01 06:35:31;;;;;;;36.50;18.95;;;;;;;9.36;93.50;102690.22;7381341;19;20010;-76
2022/05/01 06:38:01;;;;;;;35.97;18.40;;;;;;;9.39;92.61;102681.59;7380919;19;20036;-70
2022/05/01 06:40:34;;;;;;;35.22;18.02;;;;;;;9.64;93.41;102679.31;7381815;19;20040;-77
2022/05/01 06:43:03;;;;;;;30.58;16.88;;;;;;;9.92;92.64;102681.47;7379770;19;20014;-77
2022/05/01 06:45:33;;;;;;;33.38;18.45;;;;;;;9.98;89.91;102675.59;7381436;19;20056;-77
2022/05/01 06:48:03;;;;;;;32.15;17.30;;;;;;;10.11;89.99;102678.84;7379327;19;20334;-77
2022/05/01 06:50:33;;;;;;;30.30;15.52;;;;;;;10.20;88.90;102681.00;7378876;19;20014;-78
2022/05/01 06:53:03;;;;;;;30.65;16.98;;;;;;;10.36;88.09;102679.94;7376702;19;20018;-77
2022/05/01 06:55:36;;;;;;;30.15;16.65;;;;;;;10.58;88.02;102682.63;7381394;19;20403;-77
2022/05/01 06:58:06;;;;;;;28.63;16.23;;;;;;;10.60;86.51;102677.44;7371289;19;20011;-77
2022/05/01 07:00:37;;;;;;;32.70;17.55;;;;;;;10.13;83.72;102681.53;7379964;19;20035;-77
2022/05/01 07:03:07;;;;;;;31.52;16.98;;;;;;;10.05;85.08;102682.91;7374401;19;20014;-77
2022/05/01 07:05:37;;;;;;;32.70;15.82;;;;;;;9.91;86.00;102677.06;7379441;19;20010;-77
2022/05/01 07:08:07;;;;;;;27.92;15.43;;;;;;;10.20;86.15;102673.13;7370908;19;20560;-77
2022/05/01 07:10:41;;;;;;;33.90;17.00;;;;;;;9.70;85.85;102683.94;7376193;19;20027;-77
2022/05/01 07:13:11;;;;;;;30.27;17.08;;;;;;;9.97;85.97;102679.94;7371578;19;20022;-76
2022/05/01 07:15:41;;;;;;;29.33;15.95;;;;;;;9.94;85.43;102671.94;7372364;19;20018;-76
2022/05/01 07:18:12;;;;;;;27.02;14.55;;;;;;;9.75;83.03;102677.19;7375443;19;20018;-77
2022/05/01 07:20:41;;;;;;;28.80;14.43;;;;;;;9.67;84.08;102676.81;7380279;19;20510;-71
2022/05/01 07:23:11;;;;;;;26.95;15.27;;;;;;;9.82;84.26;102680.16;7376247;19;21336;-69
2022/05/01 07:25:44;;;;;;;25.90;14.07;;;;;;;10.06;84.54;102684.72;7378248;19;20042;-69
2022/05/01 07:28:14;;;;;;;25.13;13.98;;;;;;;9.98;81.93;102679.13;7377863;19;20047;-69
2022/05/01 07:30:43;;;;;;;23.38;13.43;;;;;;;9.88;81.19;102690.00;7377479;19;20349;-69
2022/05/01 07:33:13;;;;;;;25.77;13.68;;;;;;;9.99;81.21;102682.63;7378544;19;20018;-70
2022/05/01 07:35:43;;;;;;;23.63;13.38;;;;;;;9.98;81.35;102681.75;7375161;19;20536;-69
2022/05/01 07:38:13;;;;;;;23.85;13.82;;;;;;;10.51;82.09;102679.69;7373443;19;20160;-68
2022/05/01 07:40:46;;;;;;;26.70;14.43;;;;;;;10.57;76.93;102686.09;7375976;19;20040;-68
2022/05/01 07:43:16;;;;;;;25.38;13.27;;;;;;;10.59;77.05;102688.78;7370123;19;20070;-69
2022/05/01 07:45:46;;;;;;;23.02;12.40;;;;;;;10.87;76.86;102680.31;7371703;19;20027;-69
2022/05/01 07:48:16;;;;;;;22.73;14.15;;;;;;;11.43;76.06;102670.38;7374498;19;20247;-69
2022/05/01 07:50:45;;;;;;;20.27;11.95;;;;;;;11.85;71.66;102674.56;7369106;19;20582;-75
2022/05/01 07:53:16;;;;;;;21.80;12.75;;;;;;;11.48;70.65;102666.16;7371797;19;20451;-75
2022/05/01 07:55:48;;;;;;;21.70;11.25;;;;;;;11.46;70.50;102675.72;7372871;19;20082;-78
2022/05/01 07:58:20;;;;;;;16.38;10.07;;;;;;;11.42;67.34;102673.84;7371985;19;20017;-76
2022/05/01 08:00:51;;;;;;;19.30;11.07;;;;;;;11.82;68.42;102674.47;7374849;19;20515;-76
2022/05/01 08:06:03;;;;;;;17.17;11.10;;;;;;;12.19;66.93;102663.56;7378243;19;20018;-76
2022/05/01 08:08:33;;;;;;;15.25;9.68;;;;;;;12.89;64.79;102655.41;7377590;19;20027;-68
2022/05/01 08:11:06;;;;;;;19.50;10.43;;;;;;;13.16;61.48;102658.03;7377071;19;20014;-76
2022/05/01 08:13:38;;;;;;;;;;;;;;;13.19;61.07;102656.41;7381068;19;20056;-76
2022/05/01 08:16:08;;;;;;;14.68;8.82;;;;;;;12.93;61.99;102655.53;7375019;19;19922;-69
2022/05/01 08:21:21;;;;;;;11.98;6.28;;;;;;;12.60;57.31;102654.44;7372273;19;20017;-69
2022/05/01 08:23:51;;;;;;;13.38;7.40;;;;;;;12.72;60.80;102647.84;7366076;19;20323;-69
2022/05/01 08:26:24;;;;;;;15.40;7.72;;;;;;;12.57;59.38;102654.31;7372423;19;20372;-69
2022/05/01 08:28:56;;;;;;;18.15;9.02;;;;;;;11.62;60.67;102656.16;7368081;19;20007;-68
2022/05/01 08:31:26;;;;;;;18.02;9.35;;;;;;;11.97;62.24;102659.25;7371369;19;20017;-69
2022/05/01 08:33:57;;;;;;;16.42;7.90;;;;;;;12.35;61.01;102653.63;7376941;19;20078;-75
2022/05/01 08:36:29;;;;;;;10.90;7.03;;;;;;;12.33;58.97;102652.66;7377771;19;20062;-76
2022/05/01 08:39:01;;;;;;;12.32;6.75;;;;;;;12.65;58.47;102644.94;7369710;19;20051;-76
2022/05/01 08:41:34;;;;;;;15.05;7.65;;;;;;;13.00;58.57;102641.72;7369232;19;20014;-75
2022/05/01 08:44:05;;;;;;;16.20;8.68;;;;;;;12.91;58.72;102640.53;7373320;19;20041;-69
2022/05/01 08:46:50;;;;;;;14.13;8.45;;;;;;;12.67;57.59;102641.53;7371313;19;20022;-69
2022/05/01 08:49:22;;;;;;;14.23;7.80;;;;;;;13.19;58.41;102647.63;7370876;19;20073;-69
2022/05/01 08:51:54;;;;;;;15.43;8.45;;;;;;;13.03;56.67;102635.66;7369519;19;20078;-68
2022/05/01 08:54:27;;;;;;;12.52;7.65;;;;;;;13.18;57.46;102636.19;7367734;19;20006;-69
2022/05/01 08:57:01;;;;;;;12.63;7.18;;;;;;;13.80;55.27;102633.59;7371723;19;20016;-68
2022/05/01 08:59:34;;;;;;;14.07;8.70;;;;;;;13.40;54.34;102637.75;7370902;19;20140;-69
2022/05/01 09:02:04;;;;;;;15.88;7.38;;;;;;;13.81;54.59;102636.28;7371687;19;20007;-69
2022/05/01 09:04:36;;;;;;;13.50;8.43;;;;;;;13.39;54.81;102647.38;7373725;19;20006;-68
2022/05/01 09:07:07;;;;;;;14.65;7.68;;;;;;;13.57;54.58;102647.00;7377953;19;20014;-68
2022/05/01 09:09:37;;;;;;;13.70;8.40;;;;;;;13.79;56.16;102653.81;7372802;19;20007;-68
2022/05/01 09:14:55;;;;;;;14.35;7.35;;;;;;;14.44;53.70;102638.03;7370280;19;20077;-76
2022/05/01 09:17:26;;;;;;;14.32;7.78;;;;;;;14.86;54.04;102643.47;7374342;19;20018;-77
2022/05/01 09:20:08;;;;;;;12.75;8.00;;;;;;;15.01;53.64;102638.56;7368636;19;20007;-76
2022/05/01 09:22:52;;;;;;;15.07;8.18;;;;;;;14.57;50.93;102643.63;7375769;19;20010;-69
2022/05/01 09:25:26;;;;;;;14.18;7.95;;;;;;;14.61;50.74;102642.88;7369615;19;20023;-74
2022/05/01 09:28:02;;;;;;;;;;;;;;;14.19;50.44;102653.19;7369889;19;20020;-71
2022/05/01 09:30:34;;;;;;;17.42;7.53;;;;;;;14.81;51.98;102643.34;7370433;19;19978;-70
2022/05/01 09:33:05;;;;;;;12.40;7.78;;;;;;;14.99;50.12;102645.56;7369957;19;20103;-73
2022/05/01 09:35:39;;;;;;;14.10;8.10;;;;;;;15.18;50.42;102639.84;7370762;19;20015;-70
2022/05/01 09:38:17;;;;;;;11.80;6.25;;;;;;;14.38;48.64;102646.66;7370891;19;20507;-72
2022/05/01 09:40:48;;;;;;;11.02;6.40;;;;;;;14.82;48.10;102636.31;7374410;19;20286;-70
2022/05/01 09:43:37;;;;;;;10.50;7.15;;;;;;;15.20;47.58;102640.78;7377591;19;20018;-72
2022/05/01 09:46:18;;;;;;;14.35;9.32;;;;;;;14.78;45.85;102660.88;7376771;19;20479;-71
2022/05/01 09:49:00;;;;;;;12.30;6.15;;;;;;;15.07;47.34;102646.63;7378333;19;20090;-70
2022/05/01 09:51:31;;;;;;;20.00;18.20;;;;;;;15.32;47.10;102654.25;7378015;19;20420;-73
2022/05/01 09:54:05;;;;;;;13.80;7.75;;;;;;;14.93;46.93;102645.41;7372307;19;20035;-72
2022/05/01 09:56:46;;;;;;;11.18;6.90;;;;;;;15.19;47.68;102646.91;7374893;19;20048;-73
2022/05/01 09:59:20;;;;;;;14.70;7.53;;;;;;;14.75;48.01;102648.50;7369255;19;20054;-71
2022/05/01 10:02:01;;;;;;;15.48;7.68;;;;;;;15.01;48.90;102643.84;7373802;19;20120;-70
2022/05/01 10:04:32;;;;;;;13.05;6.93;;;;;;;15.19;47.99;102640.72;7380794;19;20018;-69
2022/05/01 10:07:03;;;;;;;14.63;7.28;;;;;;;14.92;47.60;102640.97;7382312;19;20563;-70
2022/05/01 10:09:35;;;;;;;12.52;7.10;;;;;;;15.34;47.81;102641.09;7383992;19;20036;-70
2022/05/01 10:12:10;;;;;;;11.75;6.28;;;;;;;15.66;46.68;102636.50;7382689;19;20010;-70
2022/05/01 10:14:43;;;;;;;54.92;10.32;;;;;;;15.43;46.28;102637.75;7381904;19;20015;-70
2022/05/01 10:17:13;;;;;;;12.57;6.82;;;;;;;15.64;46.71;102632.91;7378615;19;20014;-71
2022/05/01 10:19:45;;;;;;;16.00;7.07;;;;;;;14.80;46.81;102645.97;7381052;19;20014;-71
2022/05/01 10:22:15;;;;;;;13.25;7.70;;;;;;;14.77;47.86;102632.69;7379038;19;20031;-72
2022/05/01 10:24:45;;;;;;;15.63;7.05;;;;;;;14.91;47.33;102626.88;7381130;19;20041;-72
2022/05/01 10:27:27;;;;;;;14.23;7.55;;;;;;;14.73;46.45;102629.97;7377595;19;20587;-71
2022/05/01 10:33:26;;;;;;;12.93;6.68;;;;;;;15.46;46.89;102619.31;7372790;19;20066;-73
2022/05/01 10:36:31;;;;;;;12.70;6.68;;;;;;;15.98;45.11;102611.56;7378487;19;20055;-72
2022/05/01 10:39:11;;;;;;;14.05;7.55;;;;;;;16.17;45.04;102603.97;7378153;19;20385;-71
2022/05/01 10:41:45;;;;;;;14.02;6.90;;;;;;;16.22;44.71;102604.97;7373428;19;20022;-71
2022/05/01 10:44:30;;;;;;;12.07;7.20;;;;;;;16.46;44.81;102608.03;7378717;19;20010;-75
2022/05/01 10:47:17;;;;;;;12.77;7.45;;;;;;;16.24;43.94;102605.88;7376288;19;20014;-73
2022/05/01 10:49:48;;;;;;;13.10;6.75;;;;;;;16.23;44.66;102601.44;7377279;19;20051;-73
2022/05/01 10:52:20;;;;;;;10.80;6.55;;;;;;;16.12;44.53;102600.34;7370672;19;20156;-73
2022/05/01 10:54:55;;;;;;;12.25;7.28;;;;;;;16.20;44.79;102601.38;7377028;19;20011;-72
2022/05/01 10:57:29;;;;;;;14.77;7.75;;;;;;;16.20;43.90;102602.28;7376522;19;20452;-74
2022/05/01 11:00:10;;;;;;;12.80;7.63;;;;;;;16.33;44.01;102593.69;7377635;19;20011;-73
2022/05/01 11:02:48;;;;;;;14.20;7.53;;;;;;;16.61;44.42;102589.75;7375775;19;20096;-72
2022/05/01 11:05:47;;;;;;;14.13;7.25;;;;;;;16.60;43.51;102589.72;7376158;19;20078;-73
2022/05/01 11:08:17;;;;;;;14.90;7.68;;;;;;;17.38;43.94;102585.56;7374912;19;20043;-74
2022/05/01 11:10:47;;;;;;;13.23;7.18;;;;;;;17.38;42.58;102578.50;7378312;19;20631;-74
2022/05/01 11:13:33;;;;;;;11.13;7.53;;;;;;;17.20;42.14;102571.19;7373796;19;20030;-74
2022/05/01 11:16:04;;;;;;;13.13;7.68;;;;;;;17.65;42.37;102572.66;7378679;19;20003;-73
2022/05/01 11:18:55;;;;;;;13.25;7.43;;;;;;;18.30;41.32;102562.72;7377959;19;20010;-73
2022/05/01 11:21:37;;;;;;;13.40;7.75;;;;;;;18.33;41.15;102558.31;7375670;19;20048;-73
2022/05/01 11:24:10;;;;;;;13.52;7.65;;;;;;;18.15;40.14;102561.69;7379188;19;20031;-75
2022/05/01 11:27:13;;;;;;;13.77;8.02;;;;;;;17.87;41.04;102558.75;7379190;19;20010;-73
2022/05/01 11:30:22;;;;;;;13.18;7.60;;;;;;;16.42;42.04;102563.84;7375717;19;20530;-77
2022/05/01 11:33:19;;;;;;;12.63;7.65;;;;;;;16.74;42.44;102553.75;7377657;19;20033;-74
2022/05/01 11:36:04;;;;;;;13.32;7.90;;;;;;;17.53;41.74;102554.81;7380661;19;20340;-78
2022/05/01 11:38:35;;;;;;;15.80;7.43;;;;;;;17.38;41.68;102548.44;7380804;19;20014;-78
2022/05/01 11:41:11;;;;;;;12.45;7.30;;;;;;;17.64;40.65;102539.03;7382170;19;20017;-74
2022/05/01 11:43:46;;;;;;;12.50;7.78;;;;;;;17.76;39.55;102544.47;7377906;19;20043;-76
2022/05/01 11:46:24;;;;;;;13.30;7.43;;;;;;;17.53;40.79;102541.56;7379579;19;20010;-74
2022/05/01 11:49:10;;;;;;;13.98;7.50;;;;;;;17.37;41.52;102533.41;7377964;19;20511;-74
2022/05/01 11:51:43;;;;;;;14.77;8.23;;;;;;;18.06;39.89;102529.72;7381393;19;20060;-74
2022/05/01 11:54:16;;;;;;;14.45;8.70;;;;;;;18.21;39.46;102530.75;7369470;19;20043;-73
2022/05/01 12:02:30;;;;;;;15.10;8.25;;;;;;;17.23;40.44;102525.28;7377772;19;20143;-74
2022/05/01 12:05:04;;;;;;;14.02;6.55;;;;;;;17.80;39.43;102521.50;7380134;19;20017;-73
2022/05/01 12:07:35;;;;;;;12.30;6.78;;;;;;;18.26;38.48;102513.09;7379364;19;20025;-73
2022/05/01 12:10:07;;;;;;;15.77;7.95;;;;;;;17.30;39.50;102520.06;7378902;19;20010;-73
2022/05/01 12:12:37;;;;;;;11.75;7.28;;;;;;;17.07;40.32;102516.22;7378531;19;20033;-74
2022/05/01 12:15:10;;;;;;;12.90;7.82;;;;;;;16.59;40.57;102513.78;7375762;19;20014;-73
2022/05/01 12:17:43;;;;;;;13.53;8.17;;;;;;;17.26;40.43;102507.63;7372457;19;20011;-73